createdAt,value
2017-10-20T14:21:20.416Z,17.90
2017-10-20T14:22:40.081Z,17.90
2017-10-20T14:23:41.964Z,17.90
2017-10-20T14:24:44.641Z,18.00
2017-10-20T14:25:46.560Z,17.90
2017-10-20T14:26:48.437Z,17.90
2017-10-20T14:27:51.072Z,18.00
2017-10-20T14:28:52.960Z,17.90
2017-10-20T14:29:55.857Z,18.00
2017-10-20T14:30:57.732Z,18.00
2017-10-20T14:31:59.597Z,18.00
2017-10-20T14:33:01.474Z,18.00
2017-10-20T14:34:03.357Z,18.00
2017-10-20T14:35:05.233Z,18.00
2017-10-20T14:36:07.110Z,18.00
2017-10-20T14:37:08.979Z,18.00
2017-10-20T14:38:10.853Z,18.00
2017-10-20T14:39:12.759Z,18.00
2017-10-20T14:40:14.625Z,18.00
2017-10-20T14:41:16.497Z,18.00
2017-10-20T14:42:19.154Z,17.90
2017-10-20T14:44:41.924Z,17.90
2017-10-20T14:45:43.795Z,17.90
2017-10-20T14:46:45.659Z,17.80
2017-10-20T14:47:47.546Z,17.80
2017-10-20T14:48:49.422Z,17.80
2017-10-20T14:49:52.046Z,17.80
2017-10-20T14:50:53.913Z,17.80
2017-10-20T14:51:55.783Z,17.70
2017-10-20T14:52:58.428Z,17.70
2017-10-20T14:54:00.301Z,17.70
2017-10-20T14:55:02.197Z,17.70
2017-10-20T14:56:04.064Z,17.60
2017-10-20T14:57:05.939Z,17.60
2017-10-20T14:58:08.564Z,17.60
2017-10-20T14:59:10.432Z,17.60
2017-10-20T15:00:12.431Z,17.60
2017-10-20T15:01:14.305Z,17.60
2017-10-20T15:02:16.180Z,17.60
2017-10-20T15:03:18.816Z,17.50
2017-10-20T15:04:20.688Z,17.50
2017-10-20T15:05:22.596Z,17.50
2017-10-20T15:06:24.468Z,17.40
2017-10-20T15:07:26.340Z,17.40
2017-10-20T15:08:28.212Z,17.40
2017-10-20T15:09:30.082Z,17.40
2017-10-20T15:10:32.752Z,17.40
2017-10-20T15:11:35.394Z,17.30
2017-10-20T15:12:37.261Z,17.30
2017-10-20T15:13:39.134Z,17.30
2017-10-20T15:14:41.768Z,17.20
2017-10-20T15:15:43.685Z,17.20
2017-10-20T15:16:45.555Z,17.20
2017-10-20T15:17:47.445Z,17.20
2017-10-20T15:18:50.076Z,17.20
2017-10-20T15:19:51.965Z,17.10
2017-10-20T15:20:54.621Z,17.10
2017-10-20T15:21:56.492Z,17.10
2017-10-20T15:22:58.365Z,17.10
2017-10-20T15:24:00.242Z,17.10
2017-10-20T15:25:02.114Z,17.10
2017-10-20T15:26:04.001Z,17.00
2017-10-20T15:27:05.899Z,17.00
2017-10-20T15:28:07.764Z,17.00
2017-10-20T15:29:09.639Z,17.00
2017-10-20T15:30:12.289Z,17.00
2017-10-20T15:31:14.191Z,17.00
2017-10-20T15:32:16.070Z,17.00
2017-10-20T15:33:17.940Z,17.00
2017-10-20T15:34:19.825Z,17.00
2017-10-20T15:35:21.696Z,16.90
2017-10-20T15:36:23.604Z,16.90
2017-10-20T15:37:26.272Z,16.90
2017-10-20T15:38:28.909Z,16.90
2017-10-20T15:39:30.777Z,16.90
2017-10-20T15:40:32.640Z,16.90
2017-10-20T15:41:35.309Z,16.80
2017-10-20T15:42:37.181Z,16.80
2017-10-20T15:43:39.057Z,16.80
2017-10-20T15:44:40.929Z,16.80
2017-10-20T15:45:42.792Z,16.80
2017-10-20T15:46:44.725Z,16.70
2017-10-20T15:47:46.595Z,16.70
2017-10-20T15:48:48.466Z,16.70
2017-10-20T15:49:51.109Z,16.60
2017-10-20T15:50:53.002Z,16.60
2017-10-20T15:51:55.644Z,16.60
2017-10-20T15:52:58.280Z,16.60
2017-10-20T15:54:00.155Z,16.60
2017-10-20T15:55:02.034Z,16.50
2017-10-20T15:56:04.201Z,16.50
2017-10-20T15:57:06.085Z,16.50
2017-10-20T15:58:07.961Z,16.50
2017-10-20T15:59:09.828Z,16.50
2017-10-20T16:00:12.464Z,16.50
2017-10-20T16:01:14.336Z,16.50
2017-10-20T16:02:16.296Z,16.50
2017-10-20T16:03:18.944Z,16.60
2017-10-20T16:04:20.816Z,16.50
2017-10-20T16:05:23.456Z,16.60
2017-10-20T16:06:25.332Z,16.50
2017-10-20T16:07:28.017Z,16.60
2017-10-20T16:08:30.640Z,16.60
2017-10-20T16:09:34.020Z,16.60
2017-10-20T16:10:35.892Z,16.50
2017-10-20T16:11:37.764Z,16.60
2017-10-20T16:12:40.420Z,16.60
2017-10-20T16:13:42.289Z,16.50
2017-10-20T16:14:44.924Z,16.50
2017-10-20T16:15:46.800Z,16.50
2017-10-20T16:16:49.436Z,16.50
2017-10-20T16:17:51.352Z,16.50
2017-10-20T16:18:53.220Z,16.50
2017-10-20T16:19:55.099Z,16.50
2017-10-20T16:20:56.970Z,16.50
2017-10-20T16:21:59.604Z,16.40
2017-10-20T16:23:01.520Z,16.40
2017-10-20T16:24:03.397Z,16.40
2017-10-20T16:25:05.273Z,16.40
2017-10-20T16:26:07.150Z,16.30
2017-10-20T16:27:09.016Z,16.30
2017-10-20T16:28:10.920Z,16.30
2017-10-20T16:29:12.796Z,16.30
2017-10-20T16:30:15.429Z,16.30
2017-10-20T16:31:17.300Z,16.30
2017-10-20T16:32:19.948Z,16.30
2017-10-20T16:33:21.843Z,16.20
2017-10-20T16:34:23.713Z,16.20
2017-10-20T16:35:25.584Z,16.20
2017-10-20T16:36:28.221Z,16.30
2017-10-20T16:37:30.100Z,16.20
2017-10-20T16:38:31.988Z,16.30
2017-10-20T16:39:34.769Z,16.20
2017-10-20T16:40:37.412Z,16.20
2017-10-20T16:41:39.292Z,16.20
2017-10-20T16:42:41.945Z,16.20
2017-10-20T16:43:43.825Z,16.20
2017-10-20T16:44:45.697Z,16.20
2017-10-20T16:45:47.569Z,16.20
2017-10-20T16:46:49.444Z,16.10
2017-10-20T16:47:51.321Z,16.10
2017-10-20T16:48:53.220Z,16.10
2017-10-20T16:49:55.100Z,16.10
2017-10-20T16:50:56.968Z,16.10
2017-10-20T16:51:59.920Z,16.00
2017-10-20T16:53:01.793Z,16.00
2017-10-20T16:54:04.456Z,15.90
2017-10-20T16:55:07.096Z,15.90
2017-10-20T16:56:08.975Z,15.90
2017-10-20T16:57:11.614Z,15.90
2017-10-20T16:58:13.481Z,15.90
2017-10-20T16:59:15.371Z,15.90
2017-10-20T17:00:17.245Z,15.90
2017-10-20T17:01:19.120Z,15.90
2017-10-20T17:02:20.992Z,15.80
2017-10-20T17:03:23.632Z,15.80
2017-10-20T17:04:25.524Z,15.80
2017-10-20T17:05:28.163Z,15.80
2017-10-20T17:06:30.032Z,15.80
2017-10-20T17:07:32.668Z,15.70
2017-10-20T17:08:34.544Z,15.70
2017-10-20T17:09:37.195Z,15.70
2017-10-20T17:10:39.072Z,15.70
2017-10-20T17:11:41.714Z,15.70
2017-10-20T17:12:43.584Z,15.70
2017-10-20T17:13:46.220Z,15.70
2017-10-20T17:14:48.104Z,15.60
2017-10-20T17:15:50.740Z,15.60
2017-10-20T17:16:52.615Z,15.60
2017-10-20T17:17:54.481Z,15.60
2017-10-20T17:18:57.125Z,15.60
2017-10-20T17:19:59.000Z,15.60
2017-10-20T17:21:01.636Z,15.50
2017-10-20T17:22:03.514Z,15.50
2017-10-20T17:23:06.157Z,15.50
2017-10-20T17:24:08.036Z,15.50
2017-10-20T17:25:10.692Z,15.50
2017-10-20T17:26:12.555Z,15.40
2017-10-20T17:27:15.200Z,15.50
2017-10-20T17:28:17.071Z,15.50
2017-10-20T17:29:19.717Z,15.50
2017-10-20T17:30:21.601Z,15.40
2017-10-20T17:31:23.768Z,15.50
2017-10-20T17:32:25.637Z,15.50
2017-10-20T17:33:27.503Z,15.40
2017-10-20T17:34:29.375Z,15.50
2017-10-20T17:35:31.283Z,15.50
2017-10-20T17:36:33.160Z,15.50
2017-10-20T17:37:35.035Z,15.50
2017-10-20T17:38:36.908Z,15.40
2017-10-20T17:39:39.536Z,15.40
2017-10-20T17:40:41.421Z,15.40
2017-10-20T17:41:44.072Z,15.40
2017-10-20T17:42:45.948Z,15.40
2017-10-20T17:43:47.811Z,15.40
2017-10-20T17:44:49.688Z,15.40
2017-10-20T17:45:51.592Z,15.30
2017-10-20T17:46:54.236Z,15.30
2017-10-20T17:47:56.104Z,15.30
2017-10-20T17:48:58.745Z,15.30
2017-10-20T17:50:00.613Z,15.30
2017-10-20T17:51:02.516Z,15.30
2017-10-20T17:52:04.388Z,15.30
2017-10-20T17:53:06.257Z,15.30
2017-10-20T17:54:08.133Z,15.30
2017-10-20T17:55:10.776Z,15.30
2017-10-20T17:56:12.694Z,15.30
2017-10-20T17:57:14.580Z,15.30
2017-10-20T17:58:16.428Z,15.30
2017-10-20T17:59:18.291Z,15.30
2017-10-20T18:00:20.932Z,15.30
2017-10-20T18:01:22.837Z,15.20
2017-10-20T18:02:24.709Z,15.30
2017-10-20T18:03:26.585Z,15.30
2017-10-20T18:04:28.443Z,15.20
2017-10-20T18:05:30.544Z,15.20
2017-10-20T18:06:32.452Z,15.20
2017-10-20T18:07:34.324Z,15.20
2017-10-20T18:08:36.960Z,15.30
2017-10-20T18:09:38.827Z,15.20
2017-10-20T18:10:40.696Z,15.20
2017-10-20T18:11:43.344Z,15.20
2017-10-20T18:12:45.221Z,15.30
2017-10-20T18:13:47.102Z,15.30
2017-10-20T18:14:48.964Z,15.30
2017-10-20T18:15:50.848Z,15.20
2017-10-20T18:16:52.724Z,15.20
2017-10-20T18:17:54.600Z,15.20
2017-10-20T18:18:56.472Z,15.20
2017-10-20T18:19:58.339Z,15.20
2017-10-20T18:21:00.215Z,15.20
2017-10-20T18:22:02.860Z,15.20
2017-10-20T18:23:04.731Z,15.20
2017-10-20T18:24:07.372Z,15.20
2017-10-20T18:25:09.249Z,15.20
2017-10-20T18:26:11.884Z,15.20
2017-10-20T18:27:13.772Z,15.20
2017-10-20T18:28:16.413Z,15.20
2017-10-20T18:29:18.288Z,15.20
2017-10-20T18:30:20.933Z,15.20
2017-10-20T18:31:22.792Z,15.20
2017-10-20T18:32:24.686Z,15.20
2017-10-20T18:33:26.554Z,15.20
2017-10-20T18:34:28.423Z,15.20
2017-10-20T18:35:30.299Z,15.20
2017-10-20T18:36:32.165Z,15.20
2017-10-20T18:37:34.849Z,15.20
2017-10-20T18:38:36.728Z,15.20
2017-10-20T18:39:38.601Z,15.20
2017-10-20T18:40:40.472Z,15.20
2017-10-20T18:41:43.113Z,15.20
2017-10-20T18:42:45.013Z,15.20
2017-10-20T18:43:46.893Z,15.20
2017-10-20T18:44:48.762Z,15.10
2017-10-20T18:45:50.641Z,15.10
2017-10-20T18:46:52.512Z,15.10
2017-10-20T18:47:54.416Z,15.10
2017-10-20T18:48:56.292Z,15.10
2017-10-20T18:49:58.932Z,15.10
2017-10-20T18:51:00.808Z,15.10
2017-10-20T18:52:03.439Z,15.10
2017-10-20T18:53:05.337Z,15.10
2017-10-20T18:54:07.978Z,15.10
2017-10-20T18:55:09.848Z,15.00
2017-10-20T18:56:12.496Z,15.10
2017-10-20T18:57:14.374Z,15.10
2017-10-20T18:58:17.040Z,15.10
2017-10-20T18:59:19.685Z,15.10
2017-10-20T19:00:21.566Z,15.10
2017-10-20T19:01:24.200Z,15.10
2017-10-20T19:02:26.075Z,15.10
2017-10-20T19:03:28.745Z,15.10
2017-10-20T19:04:31.388Z,15.10
2017-10-20T19:05:33.263Z,15.10
2017-10-20T19:06:35.204Z,15.10
2017-10-20T19:07:37.068Z,15.10
2017-10-20T19:08:39.723Z,15.10
2017-10-20T19:09:41.599Z,15.10
2017-10-20T19:10:43.467Z,15.10
2017-10-20T19:11:45.349Z,15.10
2017-10-20T19:12:47.216Z,15.10
2017-10-20T19:13:49.096Z,15.10
2017-10-20T19:14:51.736Z,15.10
2017-10-20T19:15:53.613Z,15.10
2017-10-20T19:16:56.265Z,15.10
2017-10-20T19:17:58.138Z,15.10
2017-10-20T19:19:00.784Z,15.10
2017-10-20T19:20:02.665Z,15.10
2017-10-20T19:21:04.541Z,15.10
2017-10-20T19:22:06.413Z,15.10
2017-10-20T19:23:08.294Z,15.10
2017-10-20T19:24:10.945Z,15.10
2017-10-20T19:25:12.821Z,15.10
2017-10-20T19:26:15.456Z,15.10
2017-10-20T19:27:17.335Z,15.20
2017-10-20T19:28:19.989Z,15.10
2017-10-20T19:29:21.890Z,15.10
2017-10-20T19:30:23.755Z,15.10
2017-10-20T19:31:25.649Z,15.10
2017-10-20T19:32:28.292Z,15.10
2017-10-20T19:33:30.203Z,15.10
2017-10-20T19:34:32.192Z,15.00
2017-10-20T19:35:34.066Z,15.00
2017-10-20T19:36:35.946Z,15.00
2017-10-20T19:37:37.820Z,15.00
2017-10-20T19:38:39.705Z,15.00
2017-10-20T19:39:41.610Z,14.90
2017-10-20T19:40:43.483Z,14.90
2017-10-20T19:41:45.343Z,14.90
2017-10-20T19:42:47.208Z,14.90
2017-10-20T19:43:49.084Z,14.90
2017-10-20T19:44:51.752Z,14.80
2017-10-20T19:45:54.384Z,14.70
2017-10-20T19:46:56.252Z,14.70
2017-10-20T19:47:58.132Z,14.70
2017-10-20T19:49:00.009Z,14.60
2017-10-20T19:50:01.908Z,14.60
2017-10-20T19:51:03.790Z,14.60
2017-10-20T19:52:05.665Z,14.60
2017-10-20T19:53:07.532Z,14.50
2017-10-20T19:54:09.406Z,14.50
2017-10-20T19:55:11.360Z,14.50
2017-10-20T19:56:13.277Z,14.50
2017-10-20T19:57:15.150Z,14.40
2017-10-20T19:58:17.024Z,14.40
2017-10-20T19:59:19.957Z,14.40
2017-10-20T20:00:21.860Z,14.30
2017-10-20T20:01:23.736Z,14.30
2017-10-20T20:02:25.608Z,14.30
2017-10-20T20:03:27.485Z,14.30
2017-10-20T20:04:29.364Z,14.20
2017-10-20T20:05:31.268Z,14.20
2017-10-20T20:06:33.915Z,14.10
2017-10-20T20:07:35.797Z,14.10
2017-10-20T20:08:37.673Z,14.10
2017-10-20T20:09:40.308Z,14.10
2017-10-20T20:10:42.192Z,14.10
2017-10-20T20:11:44.067Z,14.10
2017-10-20T20:12:45.930Z,14.00
2017-10-20T20:13:47.805Z,14.00
2017-10-20T20:14:49.677Z,14.00
2017-10-20T20:15:51.556Z,14.00
2017-10-20T20:16:53.782Z,13.90
2017-10-20T20:17:55.643Z,13.90
2017-10-20T20:18:58.284Z,13.90
2017-10-20T20:20:00.379Z,13.90
2017-10-20T20:21:03.032Z,13.80
2017-10-20T20:22:04.899Z,13.80
2017-10-20T20:23:07.530Z,13.80
2017-10-20T20:24:09.748Z,13.80
2017-10-20T20:25:11.619Z,13.80
2017-10-20T20:26:13.524Z,13.80
2017-10-20T20:27:16.160Z,13.70
2017-10-20T20:28:18.040Z,13.70
2017-10-20T20:29:20.678Z,13.70
2017-10-20T20:30:22.549Z,13.60
2017-10-20T20:31:25.207Z,13.60
2017-10-20T20:32:27.068Z,13.60
2017-10-20T20:33:29.707Z,13.60
2017-10-20T20:34:31.589Z,13.60
2017-10-20T20:35:34.225Z,13.60
2017-10-20T20:36:36.129Z,13.50
2017-10-20T20:37:38.004Z,13.50
2017-10-20T20:38:39.876Z,13.50
2017-10-20T20:39:42.541Z,13.50
2017-10-20T20:40:44.412Z,13.50
2017-10-20T20:41:46.316Z,13.50
2017-10-20T20:42:48.188Z,13.40
2017-10-20T20:43:50.083Z,13.40
2017-10-20T20:44:52.725Z,13.40
2017-10-20T20:45:54.604Z,13.40
2017-10-20T20:46:57.281Z,13.30
2017-10-20T20:47:59.924Z,13.30
2017-10-20T20:49:01.796Z,13.30
2017-10-20T20:50:04.435Z,13.30
2017-10-20T20:51:06.316Z,13.30
2017-10-20T20:52:08.977Z,13.30
2017-10-20T20:53:11.617Z,13.30
2017-10-20T20:54:13.495Z,13.30
2017-10-20T20:55:16.132Z,13.30
2017-10-20T20:56:18.004Z,13.30
2017-10-20T20:57:19.885Z,13.30
2017-10-20T20:58:21.768Z,13.30
2017-10-20T20:59:23.653Z,13.30
2017-10-20T21:00:25.521Z,13.30
2017-10-20T21:01:28.152Z,13.30
2017-10-20T21:02:30.036Z,13.20
2017-10-20T21:03:32.676Z,13.20
2017-10-20T21:04:34.548Z,13.20
2017-10-20T21:05:36.425Z,13.30
2017-10-20T21:06:38.296Z,13.30
2017-10-20T21:07:40.237Z,13.30
2017-10-20T21:08:42.120Z,13.30
2017-10-20T21:09:43.987Z,13.30
2017-10-20T21:10:45.856Z,13.30
2017-10-20T21:11:48.491Z,13.30
2017-10-20T21:12:50.392Z,13.30
2017-10-20T21:13:52.264Z,13.30
2017-10-20T21:14:54.137Z,13.30
2017-10-20T21:15:56.009Z,13.30
2017-10-20T21:16:57.883Z,13.30
2017-10-20T21:18:00.546Z,13.30
2017-10-20T21:19:03.189Z,13.30
2017-10-20T21:20:05.053Z,13.30
2017-10-20T21:21:06.923Z,13.30
2017-10-20T21:22:09.568Z,13.30
2017-10-20T21:23:11.471Z,13.30
2017-10-20T21:24:13.356Z,13.30
2017-10-20T21:25:15.247Z,13.30
2017-10-20T21:26:17.890Z,13.30
2017-10-20T21:27:19.763Z,13.30
2017-10-20T21:28:22.440Z,13.30
2017-10-20T21:29:25.067Z,13.30
2017-10-20T21:30:26.940Z,13.30
2017-10-20T21:31:29.582Z,13.30
2017-10-20T21:32:31.454Z,13.30
2017-10-20T21:33:33.367Z,13.30
2017-10-20T21:34:35.228Z,13.30
2017-10-20T21:35:37.100Z,13.30
2017-10-20T21:36:38.974Z,13.30
2017-10-20T21:37:41.609Z,13.30
2017-10-20T21:38:43.515Z,13.30
2017-10-20T21:39:45.392Z,13.30
2017-10-20T21:40:47.269Z,13.30
2017-10-20T21:41:49.144Z,13.30
2017-10-20T21:42:51.777Z,13.20
2017-10-20T21:43:53.679Z,13.20
2017-10-20T21:44:55.552Z,13.20
2017-10-20T21:45:57.416Z,13.20
2017-10-20T21:46:59.301Z,13.10
2017-10-20T21:48:01.168Z,13.10
2017-10-20T21:49:03.821Z,13.00
2017-10-20T21:50:06.471Z,13.00
2017-10-20T21:51:08.352Z,13.00
2017-10-20T21:52:10.988Z,13.00
2017-10-20T21:53:12.860Z,13.00
2017-10-20T21:54:15.541Z,13.00
2017-10-20T21:55:18.175Z,13.00
2017-10-20T21:56:20.043Z,13.00
2017-10-20T21:57:22.685Z,13.00
2017-10-20T21:58:24.557Z,13.00
2017-10-20T21:59:26.449Z,13.00
2017-10-20T22:00:28.328Z,13.00
2017-10-20T22:01:30.204Z,13.00
2017-10-20T22:02:32.092Z,13.00
2017-10-20T22:03:33.968Z,13.00
2017-10-20T22:04:35.962Z,13.00
2017-10-20T22:05:37.833Z,13.00
2017-10-20T22:06:40.476Z,13.00
2017-10-20T22:07:42.358Z,13.00
2017-10-20T22:08:44.233Z,13.00
2017-10-20T22:09:46.134Z,13.00
2017-10-20T22:10:48.009Z,13.00
2017-10-20T22:11:49.875Z,13.00
2017-10-20T22:12:51.745Z,12.90
2017-10-20T22:13:53.620Z,12.90
2017-10-20T22:14:55.545Z,12.90
2017-10-20T22:15:57.395Z,12.90
2017-10-20T22:16:59.264Z,12.90
2017-10-20T22:18:01.140Z,12.90
2017-10-20T22:19:03.784Z,12.90
2017-10-20T22:20:05.692Z,12.90
2017-10-20T22:21:07.578Z,12.90
2017-10-20T22:22:09.449Z,12.90
2017-10-20T22:23:11.320Z,12.90
2017-10-20T22:24:13.960Z,12.90
2017-10-20T22:25:15.864Z,12.90
2017-10-20T22:26:17.739Z,12.90
2017-10-20T22:27:19.603Z,12.90
